Time;durP1;ratioP1;P1;durP2;ratioP2;P2;SDS_P1;SDS_P2;PMS_P1;PMS_P2;Temp;Humidity;BMP_temperature;BMP_pressure;BME280_temperature;BME280_humidity;BME280_pressure;Samples;Min_cycle;Max_cycle;Signal;HPM_P1;HPM_P2
2021/08/20 00:02:02;;;;;;;;;;;24.10;46.50;;;;;;8366733;28;20019;-44
2021/08/20 00:06:02;;;;;;;;;;;24.10;46.50;;;;;;8367255;28;20313;-44
2021/08/20 00:10:03;;;;;;;;;;;24.10;46.50;;;;;;8367225;28;19956;-45
2021/08/20 00:14:04;;;;;;;;;;;24.00;46.40;;;;;;8367079;28;20004;-43
2021/08/20 00:18:05;;;;;;;;;;;24.10;46.50;;;;;;8366431;28;19917;-44
2021/08/20 00:22:06;;;;;;;;;;;24.10;46.50;;;;;;8366456;28;20008;-44
2021/08/20 00:26:07;;;;;;;;;;;24.10;46.50;;;;;;8365671;28;19917;-43
2021/08/20 00:30:08;;;;;;;;;;;24.00;46.50;;;;;;8367212;28;19935;-44
2021/08/20 00:34:08;;;;;;;;;;;24.00;46.50;;;;;;8366442;28;20003;-44
2021/08/20 00:38:09;;;;;;;;;;;24.00;46.50;;;;;;8365581;28;19917;-43
2021/08/20 00:42:10;;;;;;;;;;;24.00;46.50;;;;;;8366010;28;19956;-43
2021/08/20 00:46:10;;;;;;;;;;;24.00;46.50;;;;;;8366455;28;19919;-44
2021/08/20 00:50:11;;;;;;;;;;;24.00;46.50;;;;;;8365423;28;20328;-44
2021/08/20 00:54:12;;;;;;;;;;;24.00;46.50;;;;;;8365834;28;19917;-44
2021/08/20 00:58:13;;;;;;;;;;;24.00;46.50;;;;;;8365449;28;19921;-44
2021/08/20 01:02:14;;;;;;;;;;;24.00;46.50;;;;;;8364951;28;20469;-45
2021/08/20 01:06:14;;;;;;;;;;;24.00;46.50;;;;;;8366215;28;19923;-44
2021/08/20 01:10:15;;;;;;;;;;;24.00;46.50;;;;;;8365659;28;19921;-44
2021/08/20 01:14:34;;;;;;;;;;;24.00;46.50;;;;;;8364390;28;19920;-43
2021/08/20 01:18:36;;;;;;;;;;;24.00;46.60;;;;;;8364999;28;19966;-44
2021/08/20 01:22:36;;;;;;;;;;;24.00;46.60;;;;;;8365017;28;19917;-44
2021/08/20 01:26:37;;;;;;;;;;;23.90;46.50;;;;;;8364334;28;19917;-45
2021/08/20 01:30:37;;;;;;;;;;;24.00;46.60;;;;;;8364345;28;20302;-44
2021/08/20 01:34:38;;;;;;;;;;;24.00;46.60;;;;;;8364293;28;20316;-44
2021/08/20 01:38:44;;;;;;;;;;;24.00;46.60;;;;;;8363094;28;19933;-46
2021/08/20 01:42:45;;;;;;;;;;;24.00;46.60;;;;;;8364900;28;19917;-45
2021/08/20 01:46:45;;;;;;;;;;;23.90;46.60;;;;;;8364064;28;19917;-46
2021/08/20 01:50:46;;;;;;;;;;;23.90;46.70;;;;;;8363332;28;19917;-44
2021/08/20 01:54:46;;;;;;;;;;;23.90;46.70;;;;;;8363939;28;19913;-45
2021/08/20 01:58:48;;;;;;;;;;;23.90;46.60;;;;;;8364255;28;20298;-45
2021/08/20 02:02:49;;;;;;;;;;;23.90;46.60;;;;;;8363157;28;19920;-45
2021/08/20 02:06:49;;;;;;;;;;;23.90;46.70;;;;;;8363789;28;19916;-46
2021/08/20 02:10:49;;;;;;;;;;;23.90;46.60;;;;;;8363752;28;19917;-47
2021/08/20 02:14:50;;;;;;;;;;;23.90;46.70;;;;;;8363057;28;20643;-47
2021/08/20 02:18:50;;;;;;;;;;;23.90;46.70;;;;;;8364092;28;19927;-43
2021/08/20 02:22:51;;;;;;;;;;;23.90;46.70;;;;;;8363363;28;19963;-45
2021/08/20 02:26:51;;;;;;;;;;;23.90;46.70;;;;;;8362630;28;19916;-46
2021/08/20 02:30:53;;;;;;;;;;;23.90;46.70;;;;;;8363088;28;19916;-46
2021/08/20 02:34:53;;;;;;;;;;;23.90;46.80;;;;;;8363876;28;19919;-45
2021/08/20 02:38:54;;;;;;;;;;;23.90;46.70;;;;;;8362563;28;19935;-44
2021/08/20 02:42:54;;;;;;;;;;;23.90;46.80;;;;;;8362973;28;19928;-47
2021/08/20 02:46:54;;;;;;;;;;;23.80;46.80;;;;;;8362862;28;19917;-46
2021/08/20 02:50:55;;;;;;;;;;;23.80;46.80;;;;;;8368693;28;19912;-45
2021/08/20 02:54:56;;;;;;;;;;;23.80;46.80;;;;;;8369444;28;20299;-46
2021/08/20 02:58:56;;;;;;;;;;;23.80;46.80;;;;;;8369232;28;19978;-45
2021/08/20 03:02:57;;;;;;;;;;;23.80;46.80;;;;;;8368746;28;19971;-43
2021/08/20 03:06:57;;;;;;;;;;;23.80;46.80;;;;;;8368836;28;19935;-45
2021/08/20 03:10:58;;;;;;;;;;;23.80;46.80;;;;;;8369176;28;20400;-44
2021/08/20 03:14:58;;;;;;;;;;;23.80;46.80;;;;;;8368599;28;20400;-44
2021/08/20 03:18:59;;;;;;;;;;;23.80;46.80;;;;;;8368620;28;19925;-44
2021/08/20 03:22:59;;;;;;;;;;;23.80;46.80;;;;;;8367960;28;19924;-44
2021/08/20 03:27:00;;;;;;;;;;;23.80;46.80;;;;;;8369428;28;19913;-44
2021/08/20 03:31:00;;;;;;;;;;;23.80;46.80;;;;;;8368135;28;19924;-44
2021/08/20 03:35:01;;;;;;;;;;;23.80;46.90;;;;;;8367656;28;20007;-46
2021/08/20 03:39:02;;;;;;;;;;;23.80;46.90;;;;;;8368003;28;19970;-45
2021/08/20 03:43:02;;;;;;;;;;;23.80;46.90;;;;;;8368469;28;20000;-44
2021/08/20 03:47:03;;;;;;;;;;;23.80;46.90;;;;;;8367481;28;20349;-44
2021/08/20 03:51:03;;;;;;;;;;;23.80;46.90;;;;;;8367748;28;19917;-47
2021/08/20 03:55:04;;;;;;;;;;;23.70;46.90;;;;;;8367443;28;19941;-44
2021/08/20 03:59:04;;;;;;;;;;;23.70;46.90;;;;;;8366719;28;20066;-44
2021/08/20 04:03:05;;;;;;;;;;;23.80;46.90;;;;;;8367250;28;20362;-45
2021/08/20 04:07:05;;;;;;;;;;;23.70;46.90;;;;;;8366999;28;20457;-45
2021/08/20 04:11:10;;;;;;;;;;;23.70;46.90;;;;;;8366583;28;19917;-45
2021/08/20 04:15:11;;;;;;;;;;;23.80;47.00;;;;;;8367244;28;19917;-44
2021/08/20 04:19:11;;;;;;;;;;;23.70;46.90;;;;;;8367162;28;20281;-44
2021/08/20 04:23:12;;;;;;;;;;;23.70;46.90;;;;;;8366203;28;20333;-45
2021/08/20 04:27:12;;;;;;;;;;;23.70;47.00;;;;;;8366906;28;19917;-48
2021/08/20 04:31:13;;;;;;;;;;;23.70;47.00;;;;;;8366372;28;19963;-46
2021/08/20 04:35:13;;;;;;;;;;;23.70;47.00;;;;;;8365871;28;19912;-44
2021/08/20 04:39:14;;;;;;;;;;;23.70;47.00;;;;;;8366709;28;19924;-45
2021/08/20 04:43:14;;;;;;;;;;;23.70;47.00;;;;;;8366063;28;19928;-45
2021/08/20 04:47:15;;;;;;;;;;;23.70;47.00;;;;;;8365358;28;19917;-44
2021/08/20 04:51:15;;;;;;;;;;;23.70;47.00;;;;;;8365946;28;19917;-45
2021/08/20 04:55:16;;;;;;;;;;;23.70;47.00;;;;;;8366121;28;19913;-46
2021/08/20 04:59:16;;;;;;;;;;;23.70;47.00;;;;;;8364868;28;20317;-46
2021/08/20 05:03:17;;;;;;;;;;;23.70;47.00;;;;;;8365346;28;19917;-44
2021/08/20 05:07:17;;;;;;;;;;;23.70;47.00;;;;;;8365241;28;19921;-45
2021/08/20 05:11:17;;;;;;;;;;;23.70;47.00;;;;;;8364681;28;19928;-45
2021/08/20 05:15:18;;;;;;;;;;;23.70;47.00;;;;;;8364905;28;20366;-45
2021/08/20 05:19:19;;;;;;;;;;;23.70;47.00;;;;;;8364787;28;19931;-45
2021/08/20 05:23:19;;;;;;;;;;;23.70;47.00;;;;;;8364251;28;20019;-45
2021/08/20 05:27:19;;;;;;;;;;;23.70;47.00;;;;;;8364673;28;20420;-45
2021/08/20 05:31:20;;;;;;;;;;;23.70;47.00;;;;;;8365244;28;20385;-44
2021/08/20 05:35:20;;;;;;;;;;;23.70;47.00;;;;;;8363935;28;19917;-45
2021/08/20 05:39:21;;;;;;;;;;;23.70;47.10;;;;;;8364035;28;19979;-46
2021/08/20 05:43:21;;;;;;;;;;;23.70;47.00;;;;;;8364054;28;19931;-44
2021/08/20 05:47:23;;;;;;;;;;;23.70;47.00;;;;;;8364349;28;19917;-44
2021/08/20 05:51:25;;;;;;;;;;;23.60;47.00;;;;;;8364014;28;19924;-45
2021/08/20 05:55:26;;;;;;;;;;;23.70;47.10;;;;;;8363864;28;19921;-44
2021/08/20 05:59:26;;;;;;;;;;;23.70;47.10;;;;;;8363115;28;19975;-45
2021/08/20 06:03:27;;;;;;;;;;;23.60;47.00;;;;;;8364214;28;19919;-43
2021/08/20 06:07:28;;;;;;;;;;;23.70;47.10;;;;;;8363743;28;19925;-45
2021/08/20 06:11:28;;;;;;;;;;;23.70;47.10;;;;;;8362971;28;19949;-45
2021/08/20 06:15:28;;;;;;;;;;;23.70;47.10;;;;;;8363514;28;19917;-45
2021/08/20 06:19:29;;;;;;;;;;;23.60;47.00;;;;;;8363144;28;19979;-44
2021/08/20 06:23:29;;;;;;;;;;;23.70;47.10;;;;;;8366895;28;20273;-44
2021/08/20 06:27:30;;;;;;;;;;;23.70;47.10;;;;;;8374374;28;19924;-48
2021/08/20 06:31:30;;;;;;;;;;;23.70;47.10;;;;;;8374087;28;19924;-44
2021/08/20 06:35:31;;;;;;;;;;;23.70;47.00;;;;;;8373529;28;20392;-44
2021/08/20 06:39:31;;;;;;;;;;;23.70;47.00;;;;;;8374713;28;19925;-46
2021/08/20 06:43:32;;;;;;;;;;;23.70;47.00;;;;;;8373821;28;19958;-45
2021/08/20 06:47:33;;;;;;;;;;;23.70;47.00;;;;;;8373384;28;20340;-44
2021/08/20 06:51:33;;;;;;;;;;;23.70;47.00;;;;;;8374069;28;19920;-45
2021/08/20 06:55:34;;;;;;;;;;;23.70;47.00;;;;;;8373882;28;19917;-45
2021/08/20 06:59:36;;;;;;;;;;;23.70;47.00;;;;;;8373843;28;19959;-45
2021/08/20 07:03:36;;;;;;;;;;;23.70;47.00;;;;;;8373946;28;19917;-44
2021/08/20 07:07:37;;;;;;;;;;;23.70;47.00;;;;;;8369230;28;19956;-44
2021/08/20 07:11:37;;;;;;;;;;;23.70;47.00;;;;;;8373069;28;19917;-44
2021/08/20 07:15:38;;;;;;;;;;;23.70;47.00;;;;;;8358507;28;20286;-45
2021/08/20 07:19:38;;;;;;;;;;;23.70;47.00;;;;;;8334607;28;19947;-45
2021/08/20 07:23:38;;;;;;;;;;;23.70;46.90;;;;;;8352388;28;20028;-45
2021/08/20 07:27:39;;;;;;;;;;;23.70;47.00;;;;;;8354260;28;19966;-45
2021/08/20 07:31:39;;;;;;;;;;;23.70;47.00;;;;;;8374082;28;19941;-44
2021/08/20 07:35:40;;;;;;;;;;;23.80;47.00;;;;;;8369169;28;20381;-47
2021/08/20 07:39:40;;;;;;;;;;;23.80;47.00;;;;;;8368055;28;19931;-45
2021/08/20 07:43:41;;;;;;;;;;;23.80;46.90;;;;;;8368119;28;19951;-46
2021/08/20 07:47:42;;;;;;;;;;;23.80;46.90;;;;;;8367242;28;20267;-46
2021/08/20 07:51:42;;;;;;;;;;;23.80;46.90;;;;;;8368205;28;20377;-47
2021/08/20 07:55:43;;;;;;;;;;;23.80;46.90;;;;;;8367398;28;19954;-46
2021/08/20 07:59:44;;;;;;;;;;;23.80;46.90;;;;;;8366967;28;19924;-45
2021/08/20 08:03:44;;;;;;;;;;;23.80;46.90;;;;;;8367510;28;19928;-46
2021/08/20 08:07:45;;;;;;;;;;;23.80;46.90;;;;;;8367770;28;19931;-48
2021/08/20 08:11:45;;;;;;;;;;;23.80;46.90;;;;;;8366558;28;19936;-45
2021/08/20 08:15:46;;;;;;;;;;;23.80;46.90;;;;;;8367075;28;20447;-46
2021/08/20 08:19:46;;;;;;;;;;;23.90;46.90;;;;;;8352905;28;19925;-45
2021/08/20 08:23:47;;;;;;;;;;;23.80;46.90;;;;;;8367073;28;19916;-45
2021/08/20 08:27:48;;;;;;;;;;;23.90;46.90;;;;;;8366530;28;19916;-45
2021/08/20 08:31:49;;;;;;;;;;;23.90;46.90;;;;;;8366398;28;20350;-45
2021/08/20 08:35:49;;;;;;;;;;;23.90;46.90;;;;;;8365852;28;19917;-45
2021/08/20 08:39:49;;;;;;;;;;;23.90;46.90;;;;;;8366143;28;19928;-46
2021/08/20 08:43:50;;;;;;;;;;;23.90;46.90;;;;;;8340986;28;20007;-45
2021/08/20 08:47:54;;;;;;;;;;;23.90;46.90;;;;;;8313551;28;19940;-46
2021/08/20 08:51:55;;;;;;;;;;;23.90;46.90;;;;;;8349680;28;19921;-45
2021/08/20 08:55:55;;;;;;;;;;;23.90;46.90;;;;;;8365607;28;19917;-46
2021/08/20 08:59:57;;;;;;;;;;;24.00;46.90;;;;;;8365462;28;20386;-45
2021/08/20 09:04:07;;;;;;;;;;;24.00;46.90;;;;;;8365287;28;19940;-45
2021/08/20 09:08:14;;;;;;;;;;;24.00;47.00;;;;;;8313889;28;20325;-46
2021/08/20 09:12:25;;;;;;;;;;;24.00;46.90;;;;;;8345358;28;19928;-46
2021/08/20 09:16:39;;;;;;;;;;;24.00;46.90;;;;;;8364737;28;19924;-47
2021/08/20 09:20:39;;;;;;;;;;;24.00;46.90;;;;;;8364985;28;19927;-46
2021/08/20 09:24:43;;;;;;;;;;;24.00;46.90;;;;;;8364564;28;19920;-46
2021/08/20 09:28:44;;;;;;;;;;;24.10;47.00;;;;;;8364596;28;19917;-46
2021/08/20 09:32:45;;;;;;;;;;;24.00;46.90;;;;;;8363863;28;20457;-46
2021/08/20 09:36:46;;;;;;;;;;;24.00;46.90;;;;;;8364757;28;20393;-45
2021/08/20 09:40:51;;;;;;;;;;;24.10;46.90;;;;;;8334280;28;19925;-45
2021/08/20 09:45:10;;;;;;;;;;;24.10;46.90;;;;;;8313577;28;19951;-47
2021/08/20 09:49:13;;;;;;;;;;;24.10;46.90;;;;;;8348344;28;20400;-47
2021/08/20 09:53:14;;;;;;;;;;;24.10;46.90;;;;;;8338838;28;19917;-46
2021/08/20 09:57:15;;;;;;;;;;;24.10;46.90;;;;;;8364334;28;19963;-47
2021/08/20 10:01:15;;;;;;;;;;;24.20;46.90;;;;;;8363298;28;19929;-45
2021/08/20 10:05:16;;;;;;;;;;;24.20;46.90;;;;;;8363189;28;20366;-46
2021/08/20 10:09:18;;;;;;;;;;;24.20;46.90;;;;;;8363944;28;19928;-45
2021/08/20 10:13:19;;;;;;;;;;;24.20;46.90;;;;;;8363745;28;20395;-47
2021/08/20 10:17:20;;;;;;;;;;;24.30;46.80;;;;;;8363651;28;19916;-45
2021/08/20 10:21:20;;;;;;;;;;;24.20;46.80;;;;;;8363169;28;19925;-48
2021/08/20 10:25:21;;;;;;;;;;;24.30;46.80;;;;;;8363339;28;20026;-45
2021/08/20 10:29:26;;;;;;;;;;;24.30;46.80;;;;;;8362851;28;19921;-45
2021/08/20 10:33:33;;;;;;;;;;;24.30;46.80;;;;;;8364162;28;19919;-43
2021/08/20 10:37:35;;;;;;;;;;;24.30;46.70;;;;;;8362988;28;19975;-43
2021/08/20 10:41:35;;;;;;;;;;;24.30;46.70;;;;;;8362374;28;19936;-44
2021/08/20 10:45:37;;;;;;;;;;;24.30;46.70;;;;;;8362947;28;20004;-42
2021/08/20 10:49:38;;;;;;;;;;;24.40;46.70;;;;;;8363277;28;19923;-46
2021/08/20 10:53:46;;;;;;;;;;;24.40;46.70;;;;;;8363065;28;19966;-46
2021/08/20 10:57:50;;;;;;;;;;;24.40;46.70;;;;;;8362650;28;19920;-45
2021/08/20 11:01:50;;;;;;;;;;;24.40;46.70;;;;;;8362619;28;19921;-45
2021/08/20 11:05:51;;;;;;;;;;;24.40;47.30;;;;;;8362195;28;19916;-45
2021/08/20 11:09:51;;;;;;;;;;;24.40;46.70;;;;;;8363872;28;19967;-47
2021/08/20 11:14:10;;;;;;;;;;;24.50;46.70;;;;;;8368961;28;20434;-45
2021/08/20 11:18:10;;;;;;;;;;;24.50;46.70;;;;;;8345671;28;19926;-46
2021/08/20 11:22:11;;;;;;;;;;;24.50;46.70;;;;;;8368790;28;20386;-45
2021/08/20 11:26:26;;;;;;;;;;;24.50;46.70;;;;;;8367957;28;19917;-45
2021/08/20 11:30:27;;;;;;;;;;;24.50;46.70;;;;;;8369206;28;20003;-46
2021/08/20 11:34:27;;;;;;;;;;;24.50;46.60;;;;;;8355092;28;20024;-45
2021/08/20 11:38:35;;;;;;;;;;;24.50;46.60;;;;;;8320958;28;20004;-43
2021/08/20 11:42:36;;;;;;;;;;;24.60;46.60;;;;;;8344032;28;19913;-43
2021/08/20 11:46:37;;;;;;;;;;;24.60;46.60;;;;;;8346701;28;19917;-43
2021/08/20 11:50:37;;;;;;;;;;;24.60;46.60;;;;;;8364292;28;19920;-43
2021/08/20 11:54:39;;;;;;;;;;;24.60;46.60;;;;;;8367462;28;19921;-43
2021/08/20 11:58:40;;;;;;;;;;;24.60;46.50;;;;;;8367487;28;19924;-44
2021/08/20 12:02:41;;;;;;;;;;;24.70;46.50;;;;;;8366869;28;20366;-43
2021/08/20 12:06:42;;;;;;;;;;;24.70;46.50;;;;;;8368163;28;19996;-43
2021/08/20 12:10:43;;;;;;;;;;;24.70;46.50;;;;;;8367134;28;20374;-43
2021/08/20 12:14:46;;;;;;;;;;;24.70;46.50;;;;;;8365691;28;21304;-43
2021/08/20 12:18:46;;;;;;;;;;;24.70;46.50;;;;;;8367001;28;19925;-45
2021/08/20 12:22:50;;;;;;;;;;;24.70;46.50;;;;;;8366912;28;19913;-44
2021/08/20 12:27:07;;;;;;;;;;;24.80;46.40;;;;;;8365981;28;19917;-44
2021/08/20 12:31:08;;;;;;;;;;;24.80;46.50;;;;;;8366473;28;19999;-46
2021/08/20 12:35:15;;;;;;;;;;;24.80;46.40;;;;;;8365919;28;19923;-45
2021/08/20 12:39:16;;;;;;;;;;;24.80;46.40;;;;;;8366413;28;19972;-45
2021/08/20 12:43:31;;;;;;;;;;;24.80;46.40;;;;;;8367037;28;19913;-45
2021/08/20 12:47:31;;;;;;;;;;;24.80;46.40;;;;;;8365390;28;19916;-44
2021/08/20 12:51:33;;;;;;;;;;;24.80;46.30;;;;;;8365859;28;19976;-45
2021/08/20 12:55:36;;;;;;;;;;;24.90;46.40;;;;;;8365692;28;20011;-44
2021/08/20 12:59:36;;;;;;;;;;;24.90;46.90;;;;;;8365202;28;19967;-45
2021/08/20 13:03:37;;;;;;;;;;;24.90;46.30;;;;;;8366287;28;19913;-46
2021/08/20 13:07:37;;;;;;;;;;;24.90;46.30;;;;;;8365453;28;20389;-45
2021/08/20 13:11:37;;;;;;;;;;;25.00;46.30;;;;;;8364812;28;19917;-45
2021/08/20 13:15:38;;;;;;;;;;;25.00;46.30;;;;;;8365180;28;19925;-44
2021/08/20 13:19:39;;;;;;;;;;;25.00;46.30;;;;;;8361215;28;19963;-45
2021/08/20 13:23:39;;;;;;;;;;;25.00;46.30;;;;;;8309933;28;20000;-45
2021/08/20 13:27:40;;;;;;;;;;;25.00;46.30;;;;;;8349265;28;19963;-45
2021/08/20 13:31:41;;;;;;;;;;;25.00;46.30;;;;;;8364487;28;19916;-44
2021/08/20 13:35:41;;;;;;;;;;;25.00;46.20;;;;;;8363970;28;19913;-46
2021/08/20 13:39:42;;;;;;;;;;;25.00;46.20;;;;;;8364073;28;20377;-46
2021/08/20 13:43:42;;;;;;;;;;;25.00;46.20;;;;;;8364225;28;19924;-45
2021/08/20 13:47:43;;;;;;;;;;;25.00;46.20;;;;;;8363606;28;20382;-45
2021/08/20 13:51:43;;;;;;;;;;;25.10;46.30;;;;;;8363866;28;19941;-45
2021/08/20 13:55:44;;;;;;;;;;;25.10;46.20;;;;;;8364453;28;20058;-44
2021/08/20 13:59:44;;;;;;;;;;;25.10;46.20;;;;;;8363274;28;19928;-44
2021/08/20 14:03:45;;;;;;;;;;;25.10;46.10;;;;;;8363664;28;20141;-44
2021/08/20 14:07:45;;;;;;;;;;;25.10;46.20;;;;;;8363907;28;19925;-45
2021/08/20 14:11:46;;;;;;;;;;;25.10;46.10;;;;;;8363901;28;19916;-45
2021/08/20 14:15:46;;;;;;;;;;;25.10;46.00;;;;;;8363732;28;19917;-45
2021/08/20 14:19:47;;;;;;;;;;;25.20;46.10;;;;;;8363400;28;19924;-45
2021/08/20 14:23:48;;;;;;;;;;;25.10;46.00;;;;;;8362880;28;19917;-47
2021/08/20 14:27:48;;;;;;;;;;;25.10;46.00;;;;;;8364114;28;19912;-44
2021/08/20 14:31:48;;;;;;;;;;;25.20;46.10;;;;;;8363167;28;19921;-44
2021/08/20 14:35:49;;;;;;;;;;;25.20;46.10;;;;;;8362667;28;20297;-46
2021/08/20 14:39:50;;;;;;;;;;;25.20;46.10;;;;;;8363110;28;19925;-45
2021/08/20 14:43:50;;;;;;;;;;;25.20;46.10;;;;;;8363797;28;19920;-46
2021/08/20 14:47:51;;;;;;;;;;;25.20;46.10;;;;;;8369994;28;19948;-45
2021/08/20 14:51:51;;;;;;;;;;;25.20;46.10;;;;;;8369811;28;19917;-44
2021/08/20 14:55:52;;;;;;;;;;;25.20;46.10;;;;;;8369393;28;20297;-49
2021/08/20 14:59:52;;;;;;;;;;;25.20;46.10;;;;;;8368748;28;20015;-45
2021/08/20 15:03:53;;;;;;;;;;;25.20;46.10;;;;;;8370051;28;19917;-45
2021/08/20 15:07:53;;;;;;;;;;;25.20;46.10;;;;;;8369442;28;20019;-45
2021/08/20 15:11:54;;;;;;;;;;;25.20;46.10;;;;;;8368427;28;20004;-45
2021/08/20 15:15:54;;;;;;;;;;;25.20;46.10;;;;;;8368974;28;19917;-45
2021/08/20 15:19:55;;;;;;;;;;;25.20;46.10;;;;;;8369426;28;20309;-45
2021/08/20 15:23:56;;;;;;;;;;;25.20;46.10;;;;;;8346413;28;19921;-45
2021/08/20 15:27:56;;;;;;;;;;;25.20;46.10;;;;;;8328620;28;19921;-45
2021/08/20 15:31:57;;;;;;;;;;;25.20;46.10;;;;;;8348473;28;19978;-45
2021/08/20 15:35:58;;;;;;;;;;;25.30;46.20;;;;;;8334004;28;19921;-47
2021/08/20 15:39:58;;;;;;;;;;;25.20;46.10;;;;;;8352426;28;19932;-45
2021/08/20 15:44:01;;;;;;;;;;;25.20;46.10;;;;;;8367732;28;19917;-46
2021/08/20 15:48:02;;;;;;;;;;;25.20;46.10;;;;;;8367525;28;20406;-48
2021/08/20 15:52:05;;;;;;;;;;;25.30;46.10;;;;;;8367621;28;19952;-45
2021/08/20 15:56:05;;;;;;;;;;;25.30;46.20;;;;;;8366939;28;19919;-46
2021/08/20 16:00:06;;;;;;;;;;;25.30;46.10;;;;;;8367321;28;19964;-45
2021/08/20 16:04:07;;;;;;;;;;;25.30;46.10;;;;;;8367236;28;19978;-43
2021/08/20 16:08:07;;;;;;;;;;;25.30;46.20;;;;;;8367141;28;19921;-47
2021/08/20 16:12:11;;;;;;;;;;;25.30;46.10;;;;;;8366941;28;19919;-43
2021/08/20 16:16:11;;;;;;;;;;;25.30;46.10;;;;;;8367717;28;20262;-43
2021/08/20 16:20:13;;;;;;;;;;;25.30;46.10;;;;;;8366213;28;19924;-43
2021/08/20 16:24:13;;;;;;;;;;;25.30;46.20;;;;;;8366736;28;20281;-43
2021/08/20 16:28:14;;;;;;;;;;;25.30;46.10;;;;;;8366532;28;19960;-43
2021/08/20 16:32:14;;;;;;;;;;;25.30;46.10;;;;;;8366761;28;19913;-43
2021/08/20 16:36:15;;;;;;;;;;;25.30;46.10;;;;;;8366298;28;19917;-43
2021/08/20 16:40:16;;;;;;;;;;;25.30;46.10;;;;;;8366501;28;19939;-44
2021/08/20 16:44:16;;;;;;;;;;;25.30;46.10;;;;;;8365660;28;19999;-43
2021/08/20 16:48:16;;;;;;;;;;;25.30;46.10;;;;;;8366917;28;19913;-44
2021/08/20 16:52:17;;;;;;;;;;;25.30;46.10;;;;;;8366152;28;19917;-44
2021/08/20 16:56:17;;;;;;;;;;;25.30;46.10;;;;;;8365430;28;19925;-43
2021/08/20 17:00:18;;;;;;;;;;;25.30;46.10;;;;;;8365506;28;19925;-43
2021/08/20 17:04:18;;;;;;;;;;;25.30;46.10;;;;;;8365506;28;19925;-44
2021/08/20 17:08:19;;;;;;;;;;;25.30;46.10;;;;;;8365965;28;20285;-45
2021/08/20 17:12:19;;;;;;;;;;;25.30;46.10;;;;;;8365163;28;19917;-43
2021/08/20 17:16:20;;;;;;;;;;;25.30;46.10;;;;;;8365112;28;19917;-44
2021/08/20 17:20:20;;;;;;;;;;;25.30;46.10;;;;;;8364508;28;19928;-44
2021/08/20 17:24:21;;;;;;;;;;;25.30;46.10;;;;;;8365489;28;20377;-44
2021/08/20 17:28:21;;;;;;;;;;;25.30;46.10;;;;;;8364766;28;19971;-44
2021/08/20 17:32:21;;;;;;;;;;;25.30;46.10;;;;;;8364235;28;19917;-45
2021/08/20 17:36:22;;;;;;;;;;;25.30;46.10;;;;;;8364696;28;20366;-43
2021/08/20 17:40:23;;;;;;;;;;;25.30;46.10;;;;;;8365145;28;20301;-43
2021/08/20 17:44:23;;;;;;;;;;;25.20;46.10;;;;;;8364102;28;20022;-44
2021/08/20 17:48:24;;;;;;;;;;;25.30;46.10;;;;;;8364646;28;19963;-45
2021/08/20 17:52:24;;;;;;;;;;;25.30;46.10;;;;;;8364151;28;20007;-44
2021/08/20 17:56:25;;;;;;;;;;;25.30;46.20;;;;;;8363430;28;19929;-43
2021/08/20 18:00:25;;;;;;;;;;;25.20;46.10;;;;;;8364405;28;19921;-43
2021/08/20 18:04:26;;;;;;;;;;;25.30;46.20;;;;;;8364044;28;20301;-43
2021/08/20 18:08:26;;;;;;;;;;;25.20;46.10;;;;;;8363284;28;19921;-44
2021/08/20 18:12:27;;;;;;;;;;;25.20;46.10;;;;;;8363503;28;19920;-46
2021/08/20 18:16:27;;;;;;;;;;;25.20;46.10;;;;;;8364134;28;20014;-44
2021/08/20 18:20:28;;;;;;;;;;;25.30;46.20;;;;;;8362382;28;19925;-44
2021/08/20 18:24:29;;;;;;;;;;;25.20;46.10;;;;;;8363370;28;20374;-44
2021/08/20 18:28:30;;;;;;;;;;;25.20;46.10;;;;;;8363306;28;20016;-43
2021/08/20 18:32:30;;;;;;;;;;;25.20;46.20;;;;;;8362827;28;19917;-44
2021/08/20 18:36:30;;;;;;;;;;;25.20;46.30;;;;;;8364112;28;19924;-44
2021/08/20 18:40:33;;;;;;;;;;;25.20;46.30;;;;;;8363022;28;19924;-44
2021/08/20 18:44:34;;;;;;;;;;;25.20;46.30;;;;;;8362587;28;19960;-43
2021/08/20 18:48:35;;;;;;;;;;;25.20;46.30;;;;;;8363015;28;20432;-43
2021/08/20 18:52:35;;;;;;;;;;;25.20;46.40;;;;;;8363851;28;19971;-44
2021/08/20 18:56:36;;;;;;;;;;;25.20;46.40;;;;;;8362308;28;19921;-45
2021/08/20 19:00:36;;;;;;;;;;;25.20;46.40;;;;;;8362737;28;20026;-44
2021/08/20 19:04:37;;;;;;;;;;;25.20;46.40;;;;;;8362608;28;20374;-46
2021/08/20 19:08:37;;;;;;;;;;;25.20;46.40;;;;;;8363335;28;20359;-46
2021/08/20 19:12:38;;;;;;;;;;;25.20;46.40;;;;;;8362650;28;19917;-46
2021/08/20 19:16:39;;;;;;;;;;;25.20;46.50;;;;;;8362582;28;20007;-45
2021/08/20 19:20:39;;;;;;;;;;;25.20;46.50;;;;;;8361988;28;19924;-46
2021/08/20 19:24:40;;;;;;;;;;;25.20;46.40;;;;;;8362445;28;19917;-45
2021/08/20 19:28:40;;;;;;;;;;;25.20;46.40;;;;;;8363315;28;19986;-45
2021/08/20 19:32:44;;;;;;;;;;;25.20;46.50;;;;;;8365337;28;19917;-44
2021/08/20 19:36:47;;;;;;;;;;;25.20;46.50;;;;;;8367379;28;20011;-45
2021/08/20 19:40:47;;;;;;;;;;;25.10;46.40;;;;;;8368146;28;19952;-45
2021/08/20 19:44:48;;;;;;;;;;;25.10;46.50;;;;;;8368385;28;19920;-46
2021/08/20 19:48:48;;;;;;;;;;;25.20;46.50;;;;;;8368166;28;20385;-47
2021/08/20 19:52:49;;;;;;;;;;;25.20;46.50;;;;;;8367770;28;19963;-47
2021/08/20 19:56:50;;;;;;;;;;;25.10;46.50;;;;;;8367256;28;20015;-45
2021/08/20 20:00:52;;;;;;;;;;;25.10;46.40;;;;;;8367662;28;19921;-45
2021/08/20 20:04:53;;;;;;;;;;;25.10;46.40;;;;;;8368228;28;19917;-45
2021/08/20 20:08:53;;;;;;;;;;;25.10;46.50;;;;;;8367243;28;20329;-45
2021/08/20 20:12:54;;;;;;;;;;;25.10;46.50;;;;;;8367276;28;20386;-46
2021/08/20 20:16:54;;;;;;;;;;;25.10;46.50;;;;;;8367111;28;19920;-45
2021/08/20 20:20:55;;;;;;;;;;;25.10;46.50;;;;;;8366989;28;20397;-44
2021/08/20 20:24:55;;;;;;;;;;;25.10;47.00;;;;;;8366665;28;20002;-46
2021/08/20 20:28:56;;;;;;;;;;;25.10;46.50;;;;;;8366968;28;19916;-45
2021/08/20 20:32:56;;;;;;;;;;;25.10;46.50;;;;;;8365995;28;20007;-46
2021/08/20 20:36:57;;;;;;;;;;;25.10;46.50;;;;;;8367159;28;20449;-45
2021/08/20 20:40:57;;;;;;;;;;;25.10;46.50;;;;;;8366203;28;19925;-45
2021/08/20 20:44:57;;;;;;;;;;;25.00;46.50;;;;;;8365260;28;19917;-44
2021/08/20 20:48:58;;;;;;;;;;;25.10;46.50;;;;;;8366023;28;20393;-45
2021/08/20 20:52:58;;;;;;;;;;;25.00;46.50;;;;;;8365438;28;19944;-45
2021/08/20 20:56:59;;;;;;;;;;;25.00;46.50;;;;;;8366942;28;19912;-45
2021/08/20 21:00:59;;;;;;;;;;;25.00;46.50;;;;;;8365671;28;19924;-46
2021/08/20 21:05:00;;;;;;;;;;;25.00;46.50;;;;;;8365072;28;19967;-47
2021/08/20 21:09:00;;;;;;;;;;;25.00;46.50;;;;;;8365758;28;19920;-45
2021/08/20 21:13:01;;;;;;;;;;;25.00;46.50;;;;;;8366166;28;19917;-46
2021/08/20 21:17:01;;;;;;;;;;;25.00;46.60;;;;;;8364697;28;19917;-47
2021/08/20 21:21:04;;;;;;;;;;;25.00;46.50;;;;;;8364852;28;19932;-45
2021/08/20 21:25:05;;;;;;;;;;;25.00;46.60;;;;;;8364775;28;19917;-45
2021/08/20 21:29:06;;;;;;;;;;;25.00;46.60;;;;;;8365164;28;19940;-45
2021/08/20 21:33:06;;;;;;;;;;;25.00;46.60;;;;;;8364540;28;19921;-48
2021/08/20 21:37:07;;;;;;;;;;;25.00;46.60;;;;;;8364600;28;20271;-45
2021/08/20 21:41:07;;;;;;;;;;;25.00;46.60;;;;;;8363835;28;19931;-45
2021/08/20 21:45:08;;;;;;;;;;;25.00;46.60;;;;;;8364673;28;23659;-45
2021/08/20 21:49:08;;;;;;;;;;;25.00;46.60;;;;;;8364855;28;19920;-45
2021/08/20 21:53:09;;;;;;;;;;;25.00;46.60;;;;;;8363168;28;20404;-46
2021/08/20 21:57:09;;;;;;;;;;;25.00;46.60;;;;;;8364033;28;19917;-45
2021/08/20 22:01:10;;;;;;;;;;;24.90;46.60;;;;;;8363051;28;19931;-46
2021/08/20 22:05:10;;;;;;;;;;;24.90;46.60;;;;;;8364013;28;19920;-45
2021/08/20 22:09:11;;;;;;;;;;;24.90;46.60;;;;;;8363571;28;20293;-45
2021/08/20 22:13:11;;;;;;;;;;;24.90;46.60;;;;;;8363714;28;19917;-45
2021/08/20 22:17:12;;;;;;;;;;;24.90;46.60;;;;;;8363140;28;19920;-46
2021/08/20 22:21:12;;;;;;;;;;;24.90;46.60;;;;;;8364048;28;19950;-45
2021/08/20 22:25:13;;;;;;;;;;;24.90;46.60;;;;;;8363451;28;19917;-44
2021/08/20 22:29:13;;;;;;;;;;;24.90;46.60;;;;;;8362925;28;19920;-45
2021/08/20 22:33:14;;;;;;;;;;;24.90;46.60;;;;;;8363571;28;20285;-46
2021/08/20 22:37:14;;;;;;;;;;;24.90;46.60;;;;;;8363463;28;19920;-45
2021/08/20 22:41:15;;;;;;;;;;;24.90;46.60;;;;;;8363611;28;19940;-46
2021/08/20 22:45:16;;;;;;;;;;;24.90;46.60;;;;;;8363049;28;19917;-46
2021/08/20 22:49:16;;;;;;;;;;;24.80;46.60;;;;;;8363149;28;19974;-45
2021/08/20 22:53:17;;;;;;;;;;;24.80;46.60;;;;;;8362576;28;19920;-45
2021/08/20 22:57:17;;;;;;;;;;;24.80;46.60;;;;;;8363609;28;19920;-46
2021/08/20 23:01:18;;;;;;;;;;;24.80;46.60;;;;;;8362920;28;20350;-46
2021/08/20 23:05:19;;;;;;;;;;;24.80;46.60;;;;;;8363795;28;20027;-44
2021/08/20 23:09:19;;;;;;;;;;;24.80;46.60;;;;;;8369236;28;19921;-45
2021/08/20 23:13:20;;;;;;;;;;;24.80;46.60;;;;;;8369659;28;19920;-45
2021/08/20 23:17:20;;;;;;;;;;;24.80;46.60;;;;;;8368988;28;19913;-45
2021/08/20 23:21:22;;;;;;;;;;;24.80;46.60;;;;;;8368758;28;19924;-45